createdAt,value
2019-01-18T00:00:44.699Z,2.03
2019-01-18T00:08:48.129Z,1.88
2019-01-18T00:14:13.100Z,2.01
2019-01-18T00:16:43.520Z,1.90
2019-01-18T00:19:13.843Z,1.86
2019-01-18T00:21:44.146Z,1.92
2019-01-18T00:24:16.355Z,2.14
2019-01-18T00:26:46.574Z,1.94
2019-01-18T00:29:16.778Z,2.01
2019-01-18T00:31:46.981Z,1.92
2019-01-18T00:34:17.451Z,1.87
2019-01-18T00:36:47.665Z,1.85
2019-01-18T00:39:17.892Z,1.97
2019-01-18T00:41:48.087Z,1.88
2019-01-18T00:44:20.335Z,1.86
2019-01-18T00:46:50.640Z,2.08
2019-01-18T00:52:43.914Z,1.98
2019-01-18T00:55:16.597Z,1.86
2019-01-18T00:57:46.926Z,1.93
2019-01-18T01:00:19.716Z,1.92
2019-01-18T01:02:50.022Z,1.88
2019-01-18T01:05:34.754Z,2.00
2019-01-18T01:10:48.172Z,1.90
2019-01-18T01:13:18.365Z,1.87
2019-01-18T01:15:48.690Z,1.86
2019-01-18T01:18:18.935Z,1.96
2019-01-18T01:20:49.126Z,1.86
2019-01-18T01:23:19.350Z,1.88
2019-01-18T01:25:49.780Z,1.99
2019-01-18T01:28:20.057Z,1.86
2019-01-18T01:30:50.267Z,1.89
2019-01-18T01:33:20.442Z,2.07
2019-01-18T01:35:50.840Z,1.92
2019-01-18T01:38:40.294Z,2.01
2019-01-18T01:41:10.609Z,1.91
2019-01-18T01:43:42.722Z,1.91
2019-01-18T01:46:13.007Z,2.00
2019-01-18T01:48:43.240Z,1.99
2019-01-18T01:51:32.426Z,1.87
2019-01-18T01:54:02.917Z,2.10
2019-01-18T01:56:33.129Z,1.96
2019-01-18T01:59:03.343Z,1.87
2019-01-18T02:01:33.719Z,1.89
2019-01-18T02:04:03.909Z,1.89
2019-01-18T02:06:40.614Z,1.85
2019-01-18T02:09:10.817Z,1.91
2019-01-18T02:11:41.129Z,1.86
2019-01-18T02:14:11.326Z,2.01
2019-01-18T02:16:47.405Z,1.85
2019-01-18T02:19:17.655Z,1.83
2019-01-18T02:21:47.872Z,1.85
2019-01-18T02:24:18.043Z,1.79
2019-01-18T02:26:48.259Z,1.71
2019-01-18T02:29:18.475Z,1.77
2019-01-18T02:31:48.718Z,1.78
2019-01-18T02:34:18.905Z,1.79
2019-01-18T02:36:49.267Z,1.75
2019-01-18T02:39:19.556Z,1.78
2019-01-18T02:42:08.858Z,1.78
2019-01-18T02:44:39.118Z,1.70
2019-01-18T02:47:09.688Z,1.76
2019-01-18T02:50:01.198Z,1.77
2019-01-18T02:52:31.406Z,1.74
2019-01-18T02:55:01.690Z,1.79
2019-01-18T02:57:32.036Z,1.79
2019-01-18T03:00:04.860Z,1.70
2019-01-18T03:02:39.669Z,1.63
2019-01-18T03:05:10.972Z,1.72
2019-01-18T03:07:41.496Z,1.64
2019-01-18T03:10:15.937Z,1.60
2019-01-18T03:12:46.352Z,1.72
2019-01-18T03:15:16.808Z,1.62
2019-01-18T03:17:47.031Z,1.53
2019-01-18T03:23:23.804Z,1.62
2019-01-18T03:25:54.060Z,1.68
2019-01-18T03:28:24.281Z,1.61
2019-01-18T03:30:54.651Z,1.53
2019-01-18T03:33:24.852Z,1.54
2019-01-18T03:35:55.089Z,1.65
2019-01-18T03:38:25.347Z,1.45
2019-01-18T03:40:57.524Z,1.40
2019-01-18T03:43:27.747Z,1.36
2019-01-18T03:48:50.723Z,1.44
2019-01-18T03:51:20.972Z,1.60
2019-01-18T03:53:51.287Z,1.33
2019-01-18T03:56:21.502Z,1.42
2019-01-18T03:58:51.727Z,1.38
2019-01-18T04:01:21.960Z,1.35
2019-01-18T04:06:35.011Z,1.47
2019-01-18T04:09:18.112Z,1.61
2019-01-18T04:11:48.347Z,1.39
2019-01-18T04:14:18.598Z,1.40
2019-01-18T04:16:51.104Z,1.39
2019-01-18T04:19:21.286Z,1.43
2019-01-18T04:21:51.508Z,1.40
2019-01-18T04:24:21.795Z,1.34
2019-01-18T04:26:52.069Z,1.39
2019-01-18T04:29:22.276Z,1.29
2019-01-18T04:31:52.474Z,1.31
2019-01-18T04:34:22.757Z,1.48
2019-01-18T04:36:52.957Z,1.34
2019-01-18T04:39:23.351Z,1.43
2019-01-18T04:41:53.746Z,1.28
2019-01-18T04:44:23.962Z,1.27
2019-01-18T04:46:54.162Z,1.30
2019-01-18T04:49:24.348Z,1.27
2019-01-18T04:51:54.573Z,1.32
2019-01-18T04:54:24.960Z,1.37
2019-01-18T04:56:55.231Z,1.14
2019-01-18T04:59:27.419Z,1.36
2019-01-18T05:01:57.639Z,1.24
2019-01-18T05:07:30.477Z,1.69
2019-01-18T05:10:00.973Z,1.00
2019-01-18T05:12:31.255Z,1.04
2019-01-18T05:15:01.435Z,0.67
2019-01-18T05:20:53.600Z,0.81
2019-01-18T05:23:23.892Z,0.99
2019-01-18T05:25:54.166Z,0.83
2019-01-18T05:28:24.471Z,0.61
2019-01-18T05:30:54.844Z,0.91
2019-01-18T05:33:32.307Z,0.84
2019-01-18T05:36:02.536Z,1.05
2019-01-18T05:47:20.044Z,0.47
2019-01-18T05:49:50.290Z,0.77
2019-01-18T05:52:39.919Z,0.54
2019-01-18T05:55:29.443Z,0.51
2019-01-18T05:57:59.736Z,0.31
2019-01-18T06:00:55.412Z,0.38
2019-01-18T06:03:23.320Z,0.14
2019-01-18T06:05:55.555Z,0.47
2019-01-18T06:08:25.956Z,0.50
2019-01-18T06:11:08.371Z,0.40
2019-01-18T06:13:38.675Z,0.23
2019-01-18T06:16:08.963Z,0.24
2019-01-18T06:18:39.227Z,0.17
2019-01-18T06:21:09.428Z,0.49
2019-01-18T06:23:39.793Z,0.02
2019-01-18T06:26:10.117Z,0.28
2019-01-18T06:28:40.346Z,0.16
2019-01-18T06:31:29.709Z,0.16
2019-01-18T06:36:44.063Z,0.20
2019-01-18T06:39:14.761Z,0.48
2019-01-18T06:41:51.331Z,0.12
2019-01-18T06:44:21.708Z,-0.02
2019-01-18T06:46:52.691Z,-0.09
2019-01-18T06:49:23.156Z,-0.01
2019-01-18T06:51:53.638Z,-0.11
2019-01-18T06:54:23.837Z,-0.06
2019-01-18T06:59:35.670Z,0.05
2019-01-18T07:02:05.886Z,-0.11
2019-01-18T07:04:40.734Z,-0.16
2019-01-18T07:07:14.109Z,0.19
2019-01-18T07:12:28.073Z,-0.02
2019-01-18T07:18:00.280Z,0.09
2019-01-18T07:20:50.845Z,0.14
2019-01-18T07:23:40.193Z,-0.02
2019-01-18T07:26:12.749Z,0.08
2019-01-18T07:31:46.586Z,0.06
2019-01-18T07:34:16.896Z,0.12
2019-01-18T07:39:42.003Z,-0.14
2019-01-18T07:42:12.638Z,-0.16
2019-01-18T07:44:42.906Z,-0.07
2019-01-18T07:47:13.381Z,-0.12
2019-01-18T07:49:43.726Z,-0.10
2019-01-18T07:52:16.155Z,-0.17
2019-01-18T07:57:40.756Z,-0.02
2019-01-18T08:00:14.967Z,-0.17
2019-01-18T08:02:45.916Z,-0.06
2019-01-18T08:08:28.989Z,0.05
2019-01-18T08:13:51.305Z,0.18
2019-01-18T08:16:21.866Z,-0.16
2019-01-18T08:18:52.253Z,0.16
2019-01-18T08:21:22.890Z,0.07
2019-01-18T08:23:53.690Z,-0.05
2019-01-18T08:29:23.552Z,0.04
2019-01-18T08:31:54.183Z,0.19
2019-01-18T08:37:28.936Z,0.21
2019-01-18T08:40:01.056Z,-0.06
2019-01-18T08:42:33.891Z,-0.08
2019-01-18T08:45:04.322Z,0.27
2019-01-18T08:47:35.502Z,0.13
2019-01-18T08:50:09.329Z,0.27
2019-01-18T08:52:39.988Z,0.12
2019-01-18T08:55:10.992Z,-0.05
2019-01-18T08:57:42.322Z,-0.08
2019-01-18T09:00:15.809Z,-0.17
2019-01-18T09:05:37.753Z,-0.17
2019-01-18T09:08:27.226Z,-0.19
2019-01-18T09:11:02.630Z,0.08
2019-01-18T09:13:32.968Z,-0.05
2019-01-18T09:16:03.798Z,-0.26
2019-01-18T09:18:36.417Z,-0.12
2019-01-18T09:21:25.967Z,-0.05
2019-01-18T09:24:08.959Z,-0.03
2019-01-18T09:32:39.729Z,-0.29
2019-01-18T09:35:11.685Z,-0.08
2019-01-18T09:38:01.120Z,0.14
2019-01-18T09:40:33.180Z,-0.14
2019-01-18T09:43:06.765Z,0.11
2019-01-18T09:45:37.184Z,-0.15
2019-01-18T09:48:10.914Z,-0.11
2019-01-18T09:50:43.140Z,-0.13
2019-01-18T10:02:12.048Z,-0.20
2019-01-18T10:14:09.933Z,0.42
2019-01-18T10:22:13.995Z,0.45
2019-01-18T10:24:45.033Z,0.29
2019-01-18T10:33:12.513Z,0.03
2019-01-18T10:35:45.375Z,0.05
2019-01-18T10:38:18.071Z,0.17
2019-01-18T10:41:02.487Z,0.26
2019-01-18T10:46:15.027Z,0.32
2019-01-18T10:48:45.459Z,0.55
2019-01-18T10:51:16.444Z,0.20
2019-01-18T10:53:46.835Z,0.22
2019-01-18T10:56:19.461Z,0.26
2019-01-18T11:02:07.243Z,0.19
2019-01-18T11:04:41.568Z,0.47
2019-01-18T11:07:14.130Z,0.26
2019-01-18T11:09:45.064Z,0.04
2019-01-18T11:12:15.584Z,0.01
2019-01-18T11:21:31.312Z,0.08
2019-01-18T11:24:41.445Z,0.11
2019-01-18T11:27:11.951Z,0.22
2019-01-18T11:32:36.653Z,0.17
2019-01-18T11:35:08.121Z,0.02
2019-01-18T11:37:38.536Z,-0.02
2019-01-18T11:40:21.049Z,0.16
2019-01-18T11:45:47.362Z,0.08
2019-01-18T11:48:38.954Z,-0.05
2019-01-18T11:56:49.342Z,0.31
2019-01-18T12:02:26.065Z,0.34
2019-01-18T12:07:39.227Z,0.42
2019-01-18T12:10:12.351Z,0.31
2019-01-18T12:12:45.068Z,0.31
2019-01-18T12:15:15.612Z,0.48
2019-01-18T12:18:32.525Z,0.13
2019-01-18T12:23:49.326Z,0.00
2019-01-18T12:26:23.855Z,0.20
2019-01-18T12:29:06.709Z,0.17
2019-01-18T12:34:34.055Z,0.28
2019-01-18T12:37:17.523Z,0.01
2019-01-18T12:40:01.879Z,0.15
2019-01-18T12:45:20.394Z,0.08
2019-01-18T12:50:44.198Z,0.26
2019-01-18T12:53:29.449Z,0.05
2019-01-18T12:55:59.884Z,0.25
2019-01-18T12:58:30.175Z,0.33
2019-01-18T13:06:35.216Z,0.68
2019-01-18T13:15:05.651Z,0.30
2019-01-18T13:18:02.817Z,0.32
2019-01-18T13:20:33.132Z,0.33
2019-01-18T13:23:22.652Z,0.73
2019-01-18T13:25:55.232Z,0.36
2019-01-18T13:28:26.624Z,0.26
2019-01-18T13:30:57.334Z,0.28
2019-01-18T13:33:27.578Z,0.56
2019-01-18T13:36:16.831Z,0.76
2019-01-18T13:38:49.460Z,0.63
2019-01-18T13:41:20.694Z,1.40
2019-01-18T13:43:53.579Z,0.92
2019-01-18T13:46:23.899Z,0.92
2019-01-18T13:48:56.692Z,0.49
2019-01-18T13:54:18.425Z,0.40
2019-01-18T13:56:49.053Z,0.36
2019-01-18T14:02:24.100Z,0.22
2019-01-18T14:05:07.680Z,0.31
2019-01-18T14:07:58.608Z,0.19
2019-01-18T14:13:25.431Z,0.62
2019-01-18T14:15:57.280Z,0.44
2019-01-18T14:18:27.859Z,0.33
2019-01-18T14:21:22.198Z,0.56
2019-01-18T14:23:53.283Z,0.55
2019-01-18T14:26:23.540Z,0.20
2019-01-18T14:28:53.763Z,0.22
2019-01-18T14:31:23.944Z,0.19
2019-01-18T14:33:54.128Z,-0.03
2019-01-18T14:36:24.328Z,0.16
2019-01-18T14:39:15.741Z,0.16
2019-01-18T14:47:27.046Z,0.16
2019-01-18T14:49:57.552Z,0.43
2019-01-18T14:52:28.029Z,0.03
2019-01-18T15:03:32.239Z,-0.05
2019-01-18T15:06:24.131Z,-0.01
2019-01-18T15:08:54.541Z,-0.09
2019-01-18T15:14:27.309Z,-0.01
2019-01-18T15:16:57.582Z,-0.30
2019-01-18T15:19:30.227Z,0.04
2019-01-18T15:22:00.762Z,-0.23
2019-01-18T15:24:31.273Z,-0.19
2019-01-18T15:29:45.682Z,-0.20
2019-01-18T15:32:37.099Z,-0.38
2019-01-18T15:35:09.585Z,-0.34
2019-01-18T15:37:39.860Z,-0.34
2019-01-18T15:40:12.452Z,-0.43
2019-01-18T15:42:45.788Z,-0.33
2019-01-18T15:48:19.671Z,-0.48
2019-01-18T15:50:49.891Z,-0.19
2019-01-18T15:58:47.044Z,-0.28
2019-01-18T16:04:07.579Z,-0.42
2019-01-18T16:06:50.756Z,-0.38
2019-01-18T16:15:01.663Z,-0.55
2019-01-18T16:17:34.038Z,-0.69
2019-01-18T16:20:06.436Z,-0.61
2019-01-18T16:22:37.203Z,-0.56
2019-01-18T16:28:15.958Z,-0.65
2019-01-18T16:30:46.403Z,-0.53
2019-01-18T16:33:35.719Z,-0.69
2019-01-18T16:39:10.439Z,-0.69
2019-01-18T16:41:41.120Z,-0.77
2019-01-18T16:47:55.381Z,-0.58
2019-01-18T16:50:26.260Z,-0.64
2019-01-18T16:53:10.214Z,-0.76
2019-01-18T16:55:43.391Z,-0.57
2019-01-18T16:58:13.632Z,-0.67
2019-01-18T17:00:45.106Z,-0.99
2019-01-18T17:03:15.609Z,-0.81
2019-01-18T17:05:59.155Z,-0.81
2019-01-18T17:11:13.488Z,-0.66
2019-01-18T17:14:04.986Z,-0.93
2019-01-18T17:19:17.386Z,-1.03
2019-01-18T17:21:47.671Z,-1.07
2019-01-18T17:24:17.986Z,-1.19
2019-01-18T17:26:48.394Z,-1.07
2019-01-18T17:29:18.678Z,-1.09
2019-01-18T17:31:49.039Z,-1.32
2019-01-18T17:34:19.328Z,-1.30
2019-01-18T17:36:54.451Z,-1.27
2019-01-18T17:39:37.236Z,-1.19
2019-01-18T17:42:16.467Z,-1.21
2019-01-18T17:45:25.208Z,-1.15
2019-01-18T17:48:33.914Z,-1.18
2019-01-18T17:51:45.393Z,-1.26
2019-01-18T17:54:27.678Z,-1.30
2019-01-18T17:57:30.360Z,-1.28
2019-01-18T18:00:33.536Z,-1.38
2019-01-18T18:03:44.112Z,-1.54
2019-01-18T18:06:38.377Z,-1.29
2019-01-18T18:12:47.979Z,-1.19
2019-01-18T18:15:58.157Z,-1.11
2019-01-18T18:19:08.664Z,-1.25
2019-01-18T18:22:25.578Z,-1.16
2019-01-18T18:25:21.029Z,-1.25
2019-01-18T18:28:03.462Z,-1.29
2019-01-18T18:30:57.720Z,-1.28
2019-01-18T18:34:06.674Z,-1.48
2019-01-18T18:37:13.292Z,-1.29
2019-01-18T18:39:52.205Z,-1.25
2019-01-18T18:42:47.673Z,-1.22
2019-01-18T18:45:50.829Z,-1.39
2019-01-18T18:48:59.459Z,-1.49
2019-01-18T18:52:08.635Z,-1.41
2019-01-18T18:55:19.310Z,-1.46
2019-01-18T18:58:27.887Z,-1.45
2019-01-18T19:01:36.540Z,-1.42
2019-01-18T19:04:31.163Z,-1.45
2019-01-18T19:07:27.169Z,-1.37
2019-01-18T19:10:21.927Z,-1.39
2019-01-18T19:13:16.613Z,-1.32
2019-01-18T19:16:25.263Z,-1.49
2019-01-18T19:19:35.424Z,-1.44
2019-01-18T19:22:32.242Z,-1.40
2019-01-18T19:28:41.007Z,-1.47
2019-01-18T19:31:49.380Z,-1.44
2019-01-18T19:34:57.948Z,-1.36
2019-01-18T19:38:06.502Z,-1.48
2019-01-18T19:41:15.249Z,-1.74
2019-01-18T19:44:23.794Z,-1.61
2019-01-18T19:47:18.919Z,-1.63
2019-01-18T19:50:27.556Z,-1.63
2019-01-18T19:53:37.437Z,-1.73
2019-01-18T19:56:39.661Z,-1.89
2019-01-18T19:59:48.214Z,-1.98
2019-01-18T20:02:56.914Z,-1.98
2019-01-18T20:12:42.129Z,-1.98
2019-01-18T20:15:50.780Z,-1.97
2019-01-18T20:18:59.142Z,-2.00
2019-01-18T20:21:55.895Z,-2.03
2019-01-18T20:25:04.795Z,-2.00
2019-01-18T20:28:13.433Z,-2.10
2019-01-18T20:30:56.614Z,-2.26
2019-01-18T20:37:09.188Z,-2.31
2019-01-18T20:39:53.282Z,-2.37
2019-01-18T20:42:57.955Z,-2.45
2019-01-18T20:49:28.282Z,-2.44
2019-01-18T20:52:36.684Z,-2.50
2019-01-18T20:55:46.104Z,-2.51
2019-01-18T20:59:01.247Z,-2.55
2019-01-18T21:02:09.966Z,-2.64
2019-01-18T21:05:18.693Z,-2.72
2019-01-18T21:08:27.295Z,-2.67
2019-01-18T21:11:35.973Z,-2.67
2019-01-18T21:14:38.773Z,-2.64
2019-01-18T21:17:47.144Z,-2.58
2019-01-18T21:20:39.500Z,-2.59
2019-01-18T21:23:23.010Z,-2.70
2019-01-18T21:29:37.723Z,-2.66
2019-01-18T21:32:46.574Z,-2.72
2019-01-18T21:35:55.186Z,-2.61
2019-01-18T21:41:57.556Z,-2.63
2019-01-18T21:51:02.463Z,-2.58
2019-01-18T21:53:59.314Z,-2.50
2019-01-18T21:57:07.637Z,-2.44
2019-01-18T22:00:15.946Z,-2.36
2019-01-18T22:03:24.553Z,-2.35
2019-01-18T22:06:34.837Z,-2.28
2019-01-18T22:09:43.424Z,-2.33
2019-01-18T22:12:52.106Z,-2.40
2019-01-18T22:16:00.726Z,-2.44
2019-01-18T22:19:09.297Z,-2.51
2019-01-18T22:22:17.916Z,-2.55
2019-01-18T22:25:21.421Z,-2.77
2019-01-18T22:28:30.020Z,-2.67
2019-01-18T22:31:23.565Z,-2.99
2019-01-18T22:34:13.336Z,-3.01
2019-01-18T22:40:30.497Z,-2.94
2019-01-18T22:43:39.880Z,-2.93
2019-01-18T22:46:58.778Z,-3.12
2019-01-18T22:50:07.917Z,-3.27
2019-01-18T22:53:04.391Z,-3.43
2019-01-18T22:56:00.931Z,-3.23
2019-01-18T23:02:24.530Z,-3.29
2019-01-18T23:05:18.624Z,-3.16
2019-01-18T23:08:27.356Z,-3.29
2019-01-18T23:11:14.332Z,-3.31
2019-01-18T23:14:22.925Z,-3.15
2019-01-18T23:17:31.440Z,-3.46
2019-01-18T23:20:46.144Z,-3.39
2019-01-18T23:23:56.094Z,-3.42
2019-01-18T23:27:04.788Z,-3.37
2019-01-18T23:30:17.415Z,-3.39
2019-01-18T23:33:26.064Z,-3.24
2019-01-18T23:39:32.795Z,-3.22
2019-01-18T23:42:41.373Z,-3.22
2019-01-18T23:49:08.199Z,-3.14
2019-01-18T23:52:18.075Z,-3.14
2019-01-18T23:55:15.417Z,-3.02
